หน้าหลัก
METAR-TAF:

METAR-TAF

ท่าอากาศยาน :

Livingstone, แซมเบีย

ละติจูด: 17-49-18S, ลองจิจูด: 025-49-22E, ความสูง: 991 ม.

METAR: หายไป

เวลา: 12:16 (10:16 UTC)

การพยากรณ์

รายงานได้ทำขึ้นเมื่อ 18 ชั่วโมงและ 16 นาทีที่แล้ว ณ เวลา 16:00 UTC
การพยากรณ์มีผลตั้งแต่วันที่ 17 ณ เวลา 18 UTC จนถึงวันที่ 18 ณ เวลา 24 UTC
ลม 3 นอตจากทิศทางซึ่งแปรผันได้
ทัศนวิสัย 10 กม. หรือมากกว่า
ไม่มีเมฆต่ำกว่า 1,500 ม. และไม่มีเมฆคิวมูโลนิมบัส
กำลังกลายเป็น
ตั้งแต่วันที่ 18 ณ เวลา 05 UTC จนถึงวันที่ 18 ณ เวลา 07 UTC
ลม 10 นอตจากตะวันออก/ตะวันออกเฉียงเหนือ
กำลังกลายเป็น
ตั้งแต่วันที่ 18 ณ เวลา 16 UTC จนถึงวันที่ 18 ณ เวลา 18 UTC
ลม 3 นอตจากทิศทางซึ่งแปรผันได้

TAF: FLHN 171600Z 1718/1824 VRB03KT CAVOK BECMG 1805/1807 06010KT BECMG 1816/1818 VRB03KT

สังเกตการณ์สภาพอากาศและพยากรณ์อากาศของสนามบินมากกว่า 4000 แห่ง (รายงาน METAR และ TAF).

สถานีที่ดูได้จะแสดงไว้ด้วยจุดสีเหลืองและสีแดงบนแผนที่.

เลื่อนเมาส์ไปเหนือจุดเพื่อดูชื่อสถานี.

แล้วคลิกเพื่อดูสังเกตการณ์และการพยากรณ์สภาพอากาศ.

ในการเปลี่ยนแผนที่: คลิกที่ปุ่มสีเขียวที่มีกากบาทสีดำเพื่อซูมเข้า; ที่ปุ่มสีเขียวที่มีขีดเพื่อซูมออก; หรือที่ลูกศรสีเขียวเพื่อไปยังแผนที่ที่อยู่ติดกัน.


METAR-TAF: